sensor_id;sensor_type;location;lat;lon;timestamp;pressure;altitude;pressure_sealevel;temperature;humidity
55671;BME280;41551;47.500;8.408;2022-07-19T00:02:12;96609.69;;;19.25;65.05
55671;BME280;41551;47.500;8.408;2022-07-19T00:04:39;96602.44;;;19.26;65.68
55671;BME280;41551;47.500;8.408;2022-07-19T00:07:06;96598.47;;;19.23;65.28
55671;BME280;41551;47.500;8.408;2022-07-19T00:09:33;96606.28;;;19.20;65.11
55671;BME280;41551;47.500;8.408;2022-07-19T00:11:59;96607.66;;;19.17;65.35
55671;BME280;41551;47.500;8.408;2022-07-19T00:14:27;96605.06;;;19.12;64.50
55671;BME280;41551;47.500;8.408;2022-07-19T00:16:54;96603.66;;;19.14;63.06
55671;BME280;41551;47.500;8.408;2022-07-19T00:19:21;96596.88;;;19.22;61.95
55671;BME280;41551;47.500;8.408;2022-07-19T00:21:48;96601.94;;;19.24;61.06
55671;BME280;41551;47.500;8.408;2022-07-19T00:24:15;96598.88;;;19.30;60.24
55671;BME280;41551;47.500;8.408;2022-07-19T00:26:41;96603.56;;;19.39;59.80
55671;BME280;41551;47.500;8.408;2022-07-19T00:29:08;96594.16;;;19.41;59.71
55671;BME280;41551;47.500;8.408;2022-07-19T00:31:36;96599.41;;;19.46;59.44
55671;BME280;41551;47.500;8.408;2022-07-19T00:34:03;96593.19;;;19.51;59.28
55671;BME280;41551;47.500;8.408;2022-07-19T00:36:30;96589.13;;;19.53;58.59
55671;BME280;41551;47.500;8.408;2022-07-19T00:38:57;96587.56;;;19.52;58.40
55671;BME280;41551;47.500;8.408;2022-07-19T00:41:23;96584.31;;;19.56;57.77
55671;BME280;41551;47.500;8.408;2022-07-19T00:43:50;96584.78;;;19.58;57.04
55671;BME280;41551;47.500;8.408;2022-07-19T00:46:20;96579.44;;;19.58;57.09
55671;BME280;41551;47.500;8.408;2022-07-19T00:48:48;96573.78;;;19.59;56.74
55671;BME280;41551;47.500;8.408;2022-07-19T00:51:16;96577.25;;;19.60;56.68
55671;BME280;41551;47.500;8.408;2022-07-19T00:53:44;96567.56;;;19.64;56.20
55671;BME280;41551;47.500;8.408;2022-07-19T00:56:12;96570.72;;;19.66;55.93
55671;BME280;41551;47.500;8.408;2022-07-19T00:58:41;96575.47;;;19.69;55.77
55671;BME280;41551;47.500;8.408;2022-07-19T01:01:08;96565.59;;;19.69;55.68
55671;BME280;41551;47.500;8.408;2022-07-19T01:03:37;96570.66;;;19.71;55.14
55671;BME280;41551;47.500;8.408;2022-07-19T01:06:07;96566.06;;;19.71;55.41
55671;BME280;41551;47.500;8.408;2022-07-19T01:08:35;96566.38;;;19.70;54.68
55671;BME280;41551;47.500;8.408;2022-07-19T01:11:03;96560.44;;;19.73;54.16
55671;BME280;41551;47.500;8.408;2022-07-19T01:13:31;96565.47;;;19.75;54.02
55671;BME280;41551;47.500;8.408;2022-07-19T01:15:58;96557.69;;;19.78;54.34
55671;BME280;41551;47.500;8.408;2022-07-19T01:18:24;96564.91;;;19.78;54.01
55671;BME280;41551;47.500;8.408;2022-07-19T01:20:52;96563.28;;;19.77;54.06
55671;BME280;41551;47.500;8.408;2022-07-19T01:23:20;96569.50;;;19.77;54.04
55671;BME280;41551;47.500;8.408;2022-07-19T01:25:47;96555.00;;;19.78;53.92
55671;BME280;41551;47.500;8.408;2022-07-19T01:28:13;96560.63;;;19.77;53.71
55671;BME280;41551;47.500;8.408;2022-07-19T01:30:40;96559.34;;;19.74;54.05
55671;BME280;41551;47.500;8.408;2022-07-19T01:33:07;96563.41;;;19.71;54.20
55671;BME280;41551;47.500;8.408;2022-07-19T01:35:34;96560.22;;;19.69;54.18
55671;BME280;41551;47.500;8.408;2022-07-19T01:38:01;96564.00;;;19.68;54.09
55671;BME280;41551;47.500;8.408;2022-07-19T01:40:30;96562.41;;;19.67;54.12
55671;BME280;41551;47.500;8.408;2022-07-19T01:42:58;96570.13;;;19.69;54.18
55671;BME280;41551;47.500;8.408;2022-07-19T01:45:25;96565.88;;;19.68;54.27
55671;BME280;41551;47.500;8.408;2022-07-19T01:47:52;96553.09;;;19.65;54.16
55671;BME280;41551;47.500;8.408;2022-07-19T01:50:19;96561.41;;;19.63;54.17
55671;BME280;41551;47.500;8.408;2022-07-19T01:52:46;96558.53;;;19.60;53.98
55671;BME280;41551;47.500;8.408;2022-07-19T01:55:13;96560.22;;;19.56;54.21
55671;BME280;41551;47.500;8.408;2022-07-19T01:57:41;96566.16;;;19.52;54.10
55671;BME280;41551;47.500;8.408;2022-07-19T02:00:09;96560.81;;;19.52;54.83
55671;BME280;41551;47.500;8.408;2022-07-19T02:02:36;96547.03;;;19.45;55.08
55671;BME280;41551;47.500;8.408;2022-07-19T02:05:03;96556.63;;;19.46;54.92
55671;BME280;41551;47.500;8.408;2022-07-19T02:07:29;96556.72;;;19.41;54.92
55671;BME280;41551;47.500;8.408;2022-07-19T02:09:57;96551.16;;;19.38;55.00
55671;BME280;41551;47.500;8.408;2022-07-19T02:12:24;96544.22;;;19.37;54.75
55671;BME280;41551;47.500;8.408;2022-07-19T02:14:52;96544.53;;;19.35;54.89
55671;BME280;41551;47.500;8.408;2022-07-19T02:17:19;96535.50;;;19.31;55.18
55671;BME280;41551;47.500;8.408;2022-07-19T02:19:47;96542.53;;;19.27;55.24
55671;BME280;41551;47.500;8.408;2022-07-19T02:22:14;96537.25;;;19.22;55.04
55671;BME280;41551;47.500;8.408;2022-07-19T02:24:41;96531.41;;;19.20;54.86
55671;BME280;41551;47.500;8.408;2022-07-19T02:27:09;96527.63;;;19.21;54.97
55671;BME280;41551;47.500;8.408;2022-07-19T02:29:37;96529.22;;;19.22;54.85
55671;BME280;41551;47.500;8.408;2022-07-19T02:32:06;96527.72;;;19.15;55.35
55671;BME280;41551;47.500;8.408;2022-07-19T02:34:33;96532.94;;;19.07;55.91
55671;BME280;41551;47.500;8.408;2022-07-19T02:37:01;96533.34;;;19.00;55.62
55671;BME280;41551;47.500;8.408;2022-07-19T02:39:28;96533.03;;;19.02;55.39
55671;BME280;41551;47.500;8.408;2022-07-19T02:41:55;96532.31;;;18.96;55.99
55671;BME280;41551;47.500;8.408;2022-07-19T02:44:22;96523.88;;;18.89;56.20
55671;BME280;41551;47.500;8.408;2022-07-19T02:46:49;96527.38;;;18.89;56.75
55671;BME280;41551;47.500;8.408;2022-07-19T02:49:17;96535.16;;;18.86;56.73
55671;BME280;41551;47.500;8.408;2022-07-19T02:51:45;96530.06;;;18.84;57.13
55671;BME280;41551;47.500;8.408;2022-07-19T02:54:13;96532.81;;;18.79;57.31
55671;BME280;41551;47.500;8.408;2022-07-19T02:56:39;96529.44;;;18.73;57.46
55671;BME280;41551;47.500;8.408;2022-07-19T02:59:06;96526.34;;;18.66;57.58
55671;BME280;41551;47.500;8.408;2022-07-19T03:01:33;96526.41;;;18.61;57.75
55671;BME280;41551;47.500;8.408;2022-07-19T03:04:00;96525.19;;;18.53;58.32
55671;BME280;41551;47.500;8.408;2022-07-19T03:06:28;96533.00;;;18.50;58.22
55671;BME280;41551;47.500;8.408;2022-07-19T03:08:55;96537.22;;;18.51;58.24
55671;BME280;41551;47.500;8.408;2022-07-19T03:11:22;96533.28;;;18.48;58.55
55671;BME280;41551;47.500;8.408;2022-07-19T03:13:49;96535.72;;;18.44;59.09
55671;BME280;41551;47.500;8.408;2022-07-19T03:16:15;96533.63;;;18.41;58.79
55671;BME280;41551;47.500;8.408;2022-07-19T03:18:42;96534.44;;;18.42;58.60
55671;BME280;41551;47.500;8.408;2022-07-19T03:21:09;96540.56;;;18.42;58.73
55671;BME280;41551;47.500;8.408;2022-07-19T03:23:37;96538.19;;;18.41;59.20
55671;BME280;41551;47.500;8.408;2022-07-19T03:26:06;96534.78;;;18.35;59.81
55671;BME280;41551;47.500;8.408;2022-07-19T03:28:33;96539.06;;;18.36;59.18
55671;BME280;41551;47.500;8.408;2022-07-19T03:31:00;96539.63;;;18.33;59.55
55671;BME280;41551;47.500;8.408;2022-07-19T03:33:27;96542.34;;;18.28;60.03
55671;BME280;41551;47.500;8.408;2022-07-19T03:35:54;96535.44;;;18.27;60.05
55671;BME280;41551;47.500;8.408;2022-07-19T03:38:20;96543.22;;;18.23;59.90
55671;BME280;41551;47.500;8.408;2022-07-19T03:40:49;96541.63;;;18.22;59.65
55671;BME280;41551;47.500;8.408;2022-07-19T03:43:16;96549.66;;;18.22;59.07
55671;BME280;41551;47.500;8.408;2022-07-19T03:45:44;96553.38;;;18.21;59.01
55671;BME280;41551;47.500;8.408;2022-07-19T03:48:11;96543.94;;;18.29;59.07
55671;BME280;41551;47.500;8.408;2022-07-19T03:50:38;96547.69;;;18.28;58.87
55671;BME280;41551;47.500;8.408;2022-07-19T03:53:05;96548.22;;;18.30;58.75
55671;BME280;41551;47.500;8.408;2022-07-19T03:55:32;96540.69;;;18.32;58.45
55671;BME280;41551;47.500;8.408;2022-07-19T03:58:01;96550.59;;;18.32;58.14
55671;BME280;41551;47.500;8.408;2022-07-19T04:00:27;96547.44;;;18.29;58.49
55671;BME280;41551;47.500;8.408;2022-07-19T04:02:54;96544.47;;;18.31;58.13
55671;BME280;41551;47.500;8.408;2022-07-19T04:05:21;96541.81;;;18.31;58.19
55671;BME280;41551;47.500;8.408;2022-07-19T04:07:48;96535.94;;;18.29;58.67
55671;BME280;41551;47.500;8.408;2022-07-19T04:10:14;96542.41;;;18.23;58.72
55671;BME280;41551;47.500;8.408;2022-07-19T04:12:41;96543.78;;;18.20;58.71
55671;BME280;41551;47.500;8.408;2022-07-19T04:15:10;96549.94;;;18.21;59.17
55671;BME280;41551;47.500;8.408;2022-07-19T04:17:36;96545.59;;;18.25;59.19
55671;BME280;41551;47.500;8.408;2022-07-19T04:20:04;96544.03;;;18.24;58.79
55671;BME280;41551;47.500;8.408;2022-07-19T04:22:31;96549.34;;;18.24;58.95
55671;BME280;41551;47.500;8.408;2022-07-19T04:24:58;96548.78;;;18.27;58.11
55671;BME280;41551;47.500;8.408;2022-07-19T04:27:26;96545.59;;;18.25;58.04
55671;BME280;41551;47.500;8.408;2022-07-19T04:29:53;96548.78;;;18.27;58.57
55671;BME280;41551;47.500;8.408;2022-07-19T04:32:21;96550.34;;;18.28;58.66
55671;BME280;41551;47.500;8.408;2022-07-19T04:34:48;96543.44;;;18.27;59.24
55671;BME280;41551;47.500;8.408;2022-07-19T04:37:15;96546.69;;;18.24;58.75
55671;BME280;41551;47.500;8.408;2022-07-19T04:39:42;96555.16;;;18.31;58.73
55671;BME280;41551;47.500;8.408;2022-07-19T04:42:08;96549.66;;;18.41;58.14
55671;BME280;41551;47.500;8.408;2022-07-19T04:44:35;96564.53;;;18.47;58.64
55671;BME280;41551;47.500;8.408;2022-07-19T04:47:02;96562.09;;;18.51;58.12
55671;BME280;41551;47.500;8.408;2022-07-19T04:49:30;96557.16;;;18.58;57.07
55671;BME280;41551;47.500;8.408;2022-07-19T04:51:57;96565.31;;;18.67;56.18
55671;BME280;41551;47.500;8.408;2022-07-19T04:54:25;96550.50;;;18.75;56.89
55671;BME280;41551;47.500;8.408;2022-07-19T04:56:51;96556.59;;;18.80;56.92
55671;BME280;41551;47.500;8.408;2022-07-19T04:59:18;96556.22;;;18.87;56.32
55671;BME280;41551;47.500;8.408;2022-07-19T05:01:45;96555.88;;;18.94;56.32
55671;BME280;41551;47.500;8.408;2022-07-19T05:04:12;96560.06;;;19.00;56.81
55671;BME280;41551;47.500;8.408;2022-07-19T05:06:40;96556.72;;;19.08;56.13
55671;BME280;41551;47.500;8.408;2022-07-19T05:09:08;96561.41;;;19.16;56.48
55671;BME280;41551;47.500;8.408;2022-07-19T05:11:35;96566.06;;;19.25;56.72
55671;BME280;41551;47.500;8.408;2022-07-19T05:14:02;96557.19;;;19.29;57.19
55671;BME280;41551;47.500;8.408;2022-07-19T05:16:29;96558.59;;;19.41;56.86
55671;BME280;41551;47.500;8.408;2022-07-19T05:18:56;96559.50;;;19.50;56.57
55671;BME280;41551;47.500;8.408;2022-07-19T05:21:22;96557.63;;;19.64;56.68
55671;BME280;41551;47.500;8.408;2022-07-19T05:23:51;96559.34;;;19.74;55.83
55671;BME280;41551;47.500;8.408;2022-07-19T05:26:17;96562.84;;;19.88;55.54
55671;BME280;41551;47.500;8.408;2022-07-19T05:28:44;96563.53;;;20.08;55.24
55671;BME280;41551;47.500;8.408;2022-07-19T05:31:13;96566.09;;;20.13;55.26
55671;BME280;41551;47.500;8.408;2022-07-19T05:33:40;96551.91;;;20.27;54.46
55671;BME280;41551;47.500;8.408;2022-07-19T05:36:07;96555.66;;;20.39;55.05
55671;BME280;41551;47.500;8.408;2022-07-19T05:38:36;96552.28;;;20.48;54.14
55671;BME280;41551;47.500;8.408;2022-07-19T05:41:06;96552.66;;;20.55;53.88
55671;BME280;41551;47.500;8.408;2022-07-19T05:43:34;96555.03;;;20.70;53.97
55671;BME280;41551;47.500;8.408;2022-07-19T05:46:02;96552.91;;;20.81;52.91
55671;BME280;41551;47.500;8.408;2022-07-19T05:48:29;96545.59;;;20.96;51.49
55671;BME280;41551;47.500;8.408;2022-07-19T05:50:56;96553.66;;;21.18;50.27
55671;BME280;41551;47.500;8.408;2022-07-19T05:53:23;96549.28;;;21.31;52.16
55671;BME280;41551;47.500;8.408;2022-07-19T05:55:50;96554.34;;;21.55;50.78
55671;BME280;41551;47.500;8.408;2022-07-19T05:58:18;96547.53;;;21.80;49.47
55671;BME280;41551;47.500;8.408;2022-07-19T06:00:45;96543.47;;;22.00;47.13
55671;BME280;41551;47.500;8.408;2022-07-19T06:03:26;96541.94;;;22.17;46.87
55671;BME280;41551;47.500;8.408;2022-07-19T06:05:53;96538.53;;;22.34;46.66
55671;BME280;41551;47.500;8.408;2022-07-19T06:08:19;96540.44;;;22.51;45.44
55671;BME280;41551;47.500;8.408;2022-07-19T06:10:46;96539.97;;;22.66;45.18
55671;BME280;41551;47.500;8.408;2022-07-19T06:13:13;96546.00;;;22.81;44.94
55671;BME280;41551;47.500;8.408;2022-07-19T06:15:41;96544.09;;;22.90;44.59
55671;BME280;41551;47.500;8.408;2022-07-19T06:18:08;96548.03;;;23.01;44.33
55671;BME280;41551;47.500;8.408;2022-07-19T06:20:35;96547.56;;;23.17;43.66
55671;BME280;41551;47.500;8.408;2022-07-19T06:23:02;96539.97;;;23.28;43.50
55671;BME280;41551;47.500;8.408;2022-07-19T06:25:29;96537.41;;;23.31;43.08
55671;BME280;41551;47.500;8.408;2022-07-19T06:27:56;96541.31;;;23.42;42.62
55671;BME280;41551;47.500;8.408;2022-07-19T06:30:22;96544.19;;;23.46;42.80
55671;BME280;41551;47.500;8.408;2022-07-19T06:32:51;96540.97;;;23.53;42.36
55671;BME280;41551;47.500;8.408;2022-07-19T06:35:17;96538.47;;;23.56;42.67
55671;BME280;41551;47.500;8.408;2022-07-19T06:37:44;96540.78;;;23.67;42.15
55671;BME280;41551;47.500;8.408;2022-07-19T06:40:11;96539.81;;;23.71;42.11
55671;BME280;41551;47.500;8.408;2022-07-19T06:42:38;96548.50;;;23.77;42.52
55671;BME280;41551;47.500;8.408;2022-07-19T06:45:06;96535.16;;;23.89;42.58
55671;BME280;41551;47.500;8.408;2022-07-19T06:47:33;96534.81;;;24.00;42.59
55671;BME280;41551;47.500;8.408;2022-07-19T06:50:01;96536.81;;;24.11;42.05
55671;BME280;41551;47.500;8.408;2022-07-19T06:52:28;96535.97;;;24.20;41.89
55671;BME280;41551;47.500;8.408;2022-07-19T06:54:54;96542.06;;;24.29;41.97
55671;BME280;41551;47.500;8.408;2022-07-19T06:57:21;96540.78;;;24.35;41.77
55671;BME280;41551;47.500;8.408;2022-07-19T06:59:48;96532.75;;;24.47;41.67
55671;BME280;41551;47.500;8.408;2022-07-19T07:02:15;96535.72;;;24.55;41.42
55671;BME280;41551;47.500;8.408;2022-07-19T07:04:41;96537.78;;;24.58;41.64
55671;BME280;41551;47.500;8.408;2022-07-19T07:07:10;96537.63;;;24.63;40.92
55671;BME280;41551;47.500;8.408;2022-07-19T07:09:36;96536.94;;;24.66;40.78
55671;BME280;41551;47.500;8.408;2022-07-19T07:12:03;96531.47;;;24.75;40.68
55671;BME280;41551;47.500;8.408;2022-07-19T07:14:30;96534.09;;;24.83;40.61
55671;BME280;41551;47.500;8.408;2022-07-19T07:16:57;96529.41;;;24.93;40.92
55671;BME280;41551;47.500;8.408;2022-07-19T07:19:23;96529.88;;;24.95;40.42
55671;BME280;41551;47.500;8.408;2022-07-19T07:21:50;96537.94;;;25.16;40.28
55671;BME280;41551;47.500;8.408;2022-07-19T07:24:18;96536.28;;;25.24;40.02
55671;BME280;41551;47.500;8.408;2022-07-19T07:26:45;96532.28;;;25.30;39.46
55671;BME280;41551;47.500;8.408;2022-07-19T07:29:12;96538.03;;;25.41;39.42
55671;BME280;41551;47.500;8.408;2022-07-19T07:31:39;96536.38;;;25.48;39.45
55671;BME280;41551;47.500;8.408;2022-07-19T07:34:05;96541.00;;;25.60;39.22
55671;BME280;41551;47.500;8.408;2022-07-19T07:36:32;96537.16;;;25.61;38.98
55671;BME280;41551;47.500;8.408;2022-07-19T07:38:59;96541.88;;;25.64;39.15
55671;BME280;41551;47.500;8.408;2022-07-19T07:41:27;96543.56;;;25.69;39.09
55671;BME280;41551;47.500;8.408;2022-07-19T07:43:54;96537.06;;;25.70;39.46
55671;BME280;41551;47.500;8.408;2022-07-19T07:46:21;96536.72;;;25.84;39.46
55671;BME280;41551;47.500;8.408;2022-07-19T07:48:48;96543.63;;;25.94;39.35
55671;BME280;41551;47.500;8.408;2022-07-19T07:51:14;96531.66;;;25.95;39.34
55671;BME280;41551;47.500;8.408;2022-07-19T07:53:42;96530.34;;;26.01;39.20
55671;BME280;41551;47.500;8.408;2022-07-19T07:56:08;96524.28;;;26.04;38.91
55671;BME280;41551;47.500;8.408;2022-07-19T07:58:36;96527.19;;;26.11;39.33
55671;BME280;41551;47.500;8.408;2022-07-19T08:01:03;96528.53;;;26.17;39.05
55671;BME280;41551;47.500;8.408;2022-07-19T08:03:30;96522.66;;;26.28;39.06
55671;BME280;41551;47.500;8.408;2022-07-19T08:05:57;96520.19;;;26.35;38.95
55671;BME280;41551;47.500;8.408;2022-07-19T08:08:24;96519.06;;;26.36;39.16
55671;BME280;41551;47.500;8.408;2022-07-19T08:10:52;96525.81;;;26.42;39.14
55671;BME280;41551;47.500;8.408;2022-07-19T08:13:19;96529.72;;;26.45;39.15
55671;BME280;41551;47.500;8.408;2022-07-19T08:15:48;96522.16;;;26.50;38.88
55671;BME280;41551;47.500;8.408;2022-07-19T08:18:15;96518.19;;;26.60;38.68
55671;BME280;41551;47.500;8.408;2022-07-19T08:20:42;96515.72;;;26.67;38.66
55671;BME280;41551;47.500;8.408;2022-07-19T08:23:09;96520.31;;;26.79;38.73
55671;BME280;41551;47.500;8.408;2022-07-19T08:25:36;96518.50;;;26.83;38.53
55671;BME280;41551;47.500;8.408;2022-07-19T08:28:03;96509.78;;;26.90;38.63
55671;BME280;41551;47.500;8.408;2022-07-19T08:30:30;96510.69;;;26.94;38.51
55671;BME280;41551;47.500;8.408;2022-07-19T08:32:58;96513.94;;;27.00;38.63
55671;BME280;41551;47.500;8.408;2022-07-19T08:35:26;96506.59;;;27.16;38.19
55671;BME280;41551;47.500;8.408;2022-07-19T08:37:53;96505.41;;;27.13;37.74
55671;BME280;41551;47.500;8.408;2022-07-19T08:40:20;96505.22;;;27.22;37.73
55671;BME280;41551;47.500;8.408;2022-07-19T08:42:46;96498.53;;;27.32;37.52
55671;BME280;41551;47.500;8.408;2022-07-19T08:45:14;96491.03;;;27.41;37.47
55671;BME280;41551;47.500;8.408;2022-07-19T08:47:41;96501.25;;;27.48;37.44
55671;BME280;41551;47.500;8.408;2022-07-19T08:50:11;96499.69;;;27.47;37.39
55671;BME280;41551;47.500;8.408;2022-07-19T08:52:38;96507.97;;;27.54;37.45
55671;BME280;41551;47.500;8.408;2022-07-19T08:55:05;96507.38;;;27.61;37.00
55671;BME280;41551;47.500;8.408;2022-07-19T08:57:32;96505.00;;;27.75;36.82
55671;BME280;41551;47.500;8.408;2022-07-19T09:00:16;96505.59;;;27.84;36.67
55671;BME280;41551;47.500;8.408;2022-07-19T09:02:51;96503.63;;;27.97;36.40
55671;BME280;41551;47.500;8.408;2022-07-19T09:05:20;96501.34;;;27.99;36.34
55671;BME280;41551;47.500;8.408;2022-07-19T09:08:01;96501.50;;;28.07;36.80
55671;BME280;41551;47.500;8.408;2022-07-19T09:10:28;96502.63;;;28.22;36.52
55671;BME280;41551;47.500;8.408;2022-07-19T09:13:03;96503.84;;;28.24;36.26
55671;BME280;41551;47.500;8.408;2022-07-19T09:15:37;96507.84;;;28.30;36.20
55671;BME280;41551;47.500;8.408;2022-07-19T09:18:08;96504.13;;;28.39;35.86
55671;BME280;41551;47.500;8.408;2022-07-19T09:20:37;96502.28;;;28.43;35.23
55671;BME280;41551;47.500;8.408;2022-07-19T09:23:05;96497.00;;;28.50;36.11
55671;BME280;41551;47.500;8.408;2022-07-19T09:25:38;96497.28;;;28.61;35.27
55671;BME280;41551;47.500;8.408;2022-07-19T09:28:06;96496.19;;;28.65;35.28
55671;BME280;41551;47.500;8.408;2022-07-19T09:30:38;96491.59;;;28.69;34.88
55671;BME280;41551;47.500;8.408;2022-07-19T09:33:13;96497.19;;;28.77;34.44
55671;BME280;41551;47.500;8.408;2022-07-19T09:35:46;96495.38;;;28.84;34.46
55671;BME280;41551;47.500;8.408;2022-07-19T09:38:14;96498.81;;;28.81;35.16
55671;BME280;41551;47.500;8.408;2022-07-19T09:40:41;96502.03;;;28.87;34.33
55671;BME280;41551;47.500;8.408;2022-07-19T09:43:08;96496.75;;;28.94;34.08
55671;BME280;41551;47.500;8.408;2022-07-19T09:45:35;96499.75;;;28.89;33.60
55671;BME280;41551;47.500;8.408;2022-07-19T09:48:02;96497.22;;;29.00;34.15
55671;BME280;41551;47.500;8.408;2022-07-19T09:50:30;96498.03;;;29.00;34.22
55671;BME280;41551;47.500;8.408;2022-07-19T09:53:02;96490.84;;;29.12;34.12
55671;BME280;41551;47.500;8.408;2022-07-19T09:55:29;96494.72;;;29.11;34.41
55671;BME280;41551;47.500;8.408;2022-07-19T09:57:57;96490.34;;;29.06;34.52
55671;BME280;41551;47.500;8.408;2022-07-19T10:00:27;96484.56;;;29.07;34.32
55671;BME280;41551;47.500;8.408;2022-07-19T10:02:55;96479.34;;;29.18;35.20
55671;BME280;41551;47.500;8.408;2022-07-19T10:05:23;96481.13;;;29.30;34.53
55671;BME280;41551;47.500;8.408;2022-07-19T10:07:50;96480.56;;;29.44;34.33
55671;BME280;41551;47.500;8.408;2022-07-19T10:10:21;96475.22;;;29.48;34.17
55671;BME280;41551;47.500;8.408;2022-07-19T10:12:49;96478.16;;;29.62;33.93
55671;BME280;41551;47.500;8.408;2022-07-19T10:15:18;96471.56;;;29.63;33.92
55671;BME280;41551;47.500;8.408;2022-07-19T10:17:56;96468.50;;;29.65;33.67
55671;BME280;41551;47.500;8.408;2022-07-19T10:20:26;96473.94;;;29.65;34.06
55671;BME280;41551;47.500;8.408;2022-07-19T10:22:57;96474.81;;;29.72;33.42
55671;BME280;41551;47.500;8.408;2022-07-19T10:25:37;96466.78;;;29.80;33.97
55671;BME280;41551;47.500;8.408;2022-07-19T10:28:04;96478.22;;;29.89;33.20
55671;BME280;41551;47.500;8.408;2022-07-19T10:30:39;96472.03;;;29.92;33.00
55671;BME280;41551;47.500;8.408;2022-07-19T10:33:27;96473.28;;;29.98;33.64
55671;BME280;41551;47.500;8.408;2022-07-19T10:35:54;96460.84;;;29.97;33.80
55671;BME280;41551;47.500;8.408;2022-07-19T10:38:21;96467.44;;;29.96;33.96
55671;BME280;41551;47.500;8.408;2022-07-19T10:40:50;96466.72;;;29.99;33.59
55671;BME280;41551;47.500;8.408;2022-07-19T10:43:22;96462.00;;;29.96;34.51
55671;BME280;41551;47.500;8.408;2022-07-19T10:46:08;96460.44;;;29.95;33.87
55671;BME280;41551;47.500;8.408;2022-07-19T10:48:36;96456.28;;;30.05;34.21
55671;BME280;41551;47.500;8.408;2022-07-19T10:51:03;96458.66;;;30.06;34.17
55671;BME280;41551;47.500;8.408;2022-07-19T10:53:54;96452.16;;;30.15;34.49
55671;BME280;41551;47.500;8.408;2022-07-19T10:59:11;96445.47;;;29.82;34.47
55671;BME280;41551;47.500;8.408;2022-07-19T11:01:53;96448.81;;;29.98;34.23
55671;BME280;41551;47.500;8.408;2022-07-19T11:04:23;96438.09;;;30.09;34.06
55671;BME280;41551;47.500;8.408;2022-07-19T11:06:51;96435.94;;;30.22;33.55
55671;BME280;41551;47.500;8.408;2022-07-19T11:09:18;96425.13;;;30.29;33.39
55671;BME280;41551;47.500;8.408;2022-07-19T11:11:47;96428.09;;;30.17;33.70
55671;BME280;41551;47.500;8.408;2022-07-19T11:14:13;96423.38;;;30.13;34.11
55671;BME280;41551;47.500;8.408;2022-07-19T11:16:42;96428.91;;;30.21;33.72
55671;BME280;41551;47.500;8.408;2022-07-19T11:19:09;96420.91;;;30.32;33.95
55671;BME280;41551;47.500;8.408;2022-07-19T11:21:36;96415.19;;;30.40;33.06
55671;BME280;41551;47.500;8.408;2022-07-19T11:24:04;96418.00;;;30.47;32.96
55671;BME280;41551;47.500;8.408;2022-07-19T11:26:35;96410.63;;;30.48;32.80
55671;BME280;41551;47.500;8.408;2022-07-19T11:29:05;96410.66;;;30.52;33.01
55671;BME280;41551;47.500;8.408;2022-07-19T11:31:32;96405.28;;;30.59;33.18
55671;BME280;41551;47.500;8.408;2022-07-19T11:33:59;96393.75;;;30.69;32.66
55671;BME280;41551;47.500;8.408;2022-07-19T11:36:28;96389.97;;;30.81;32.21
55671;BME280;41551;47.500;8.408;2022-07-19T11:38:56;96389.25;;;30.88;31.89
55671;BME280;41551;47.500;8.408;2022-07-19T11:41:27;96400.16;;;30.88;31.99
55671;BME280;41551;47.500;8.408;2022-07-19T11:43:56;96387.38;;;30.95;31.33
55671;BME280;41551;47.500;8.408;2022-07-19T11:46:26;96384.38;;;31.00;30.75
55671;BME280;41551;47.500;8.408;2022-07-19T11:48:55;96387.94;;;31.08;30.85
55671;BME280;41551;47.500;8.408;2022-07-19T11:51:23;96385.53;;;31.03;30.52
55671;BME280;41551;47.500;8.408;2022-07-19T11:53:52;96384.78;;;31.06;30.81
55671;BME280;41551;47.500;8.408;2022-07-19T11:56:22;96374.78;;;31.17;30.21
55671;BME280;41551;47.500;8.408;2022-07-19T11:58:50;96379.41;;;31.17;29.71
55671;BME280;41551;47.500;8.408;2022-07-19T12:01:25;96376.31;;;31.18;30.54
55671;BME280;41551;47.500;8.408;2022-07-19T12:03:53;96372.91;;;31.29;29.92
55671;BME280;41551;47.500;8.408;2022-07-19T12:06:34;96366.69;;;31.32;29.94
55671;BME280;41551;47.500;8.408;2022-07-19T12:09:03;96376.84;;;31.35;29.98
55671;BME280;41551;47.500;8.408;2022-07-19T12:11:38;96371.81;;;31.41;30.02
55671;BME280;41551;47.500;8.408;2022-07-19T12:14:16;96366.34;;;31.37;29.46
55671;BME280;41551;47.500;8.408;2022-07-19T12:16:45;96357.81;;;31.42;29.71
55671;BME280;41551;47.500;8.408;2022-07-19T12:19:12;96357.06;;;31.45;29.86
55671;BME280;41551;47.500;8.408;2022-07-19T12:21:43;96354.78;;;31.51;29.56
55671;BME280;41551;47.500;8.408;2022-07-19T12:24:19;96356.00;;;31.57;29.67
55671;BME280;41551;47.500;8.408;2022-07-19T12:26:56;96349.00;;;31.60;29.63
55671;BME280;41551;47.500;8.408;2022-07-19T12:29:25;96356.44;;;31.63;29.93
55671;BME280;41551;47.500;8.408;2022-07-19T12:31:56;96349.03;;;31.63;29.30
55671;BME280;41551;47.500;8.408;2022-07-19T12:34:24;96347.50;;;31.66;28.90
55671;BME280;41551;47.500;8.408;2022-07-19T12:36:51;96347.13;;;31.71;29.07
55671;BME280;41551;47.500;8.408;2022-07-19T12:39:21;96337.81;;;31.79;28.93
55671;BME280;41551;47.500;8.408;2022-07-19T12:42:03;96344.91;;;31.95;28.20
55671;BME280;41551;47.500;8.408;2022-07-19T12:44:30;96344.22;;;32.12;29.05
55671;BME280;41551;47.500;8.408;2022-07-19T12:46:59;96341.94;;;32.29;28.58
55671;BME280;41551;47.500;8.408;2022-07-19T12:49:40;96329.88;;;32.44;27.59
55671;BME280;41551;47.500;8.408;2022-07-19T12:52:07;96331.84;;;32.51;28.02
55671;BME280;41551;47.500;8.408;2022-07-19T12:54:34;96331.09;;;32.57;28.32
55671;BME280;41551;47.500;8.408;2022-07-19T12:57:00;96335.81;;;32.75;28.18
55671;BME280;41551;47.500;8.408;2022-07-19T12:59:27;96328.81;;;32.88;27.48
55671;BME280;41551;47.500;8.408;2022-07-19T13:02:08;96333.50;;;33.06;26.97
55671;BME280;41551;47.500;8.408;2022-07-19T13:04:36;96327.28;;;33.20;26.03
55671;BME280;41551;47.500;8.408;2022-07-19T13:07:03;96324.16;;;33.28;25.46
55671;BME280;41551;47.500;8.408;2022-07-19T13:09:30;96317.47;;;33.37;25.41